sensor_id;sensor_type;location;lat;lon;timestamp;temperature;humidity
3550;DHT22;45572;48.804;8.330;2023-02-28T00:01:08;0.80;64.90
3550;DHT22;45572;48.804;8.330;2023-02-28T00:03:35;0.80;65.10
3550;DHT22;45572;48.804;8.330;2023-02-28T00:06:04;0.70;65.20
3550;DHT22;45572;48.804;8.330;2023-02-28T00:08:32;0.70;64.50
3550;DHT22;45572;48.804;8.330;2023-02-28T00:11:02;0.70;64.80
3550;DHT22;45572;48.804;8.330;2023-02-28T00:13:32;0.70;65.30
3550;DHT22;45572;48.804;8.330;2023-02-28T00:16:02;0.60;65.80
3550;DHT22;45572;48.804;8.330;2023-02-28T00:18:29;0.60;65.70
3550;DHT22;45572;48.804;8.330;2023-02-28T00:20:57;0.60;65.30
3550;DHT22;45572;48.804;8.330;2023-02-28T00:23:26;0.60;65.30
3550;DHT22;45572;48.804;8.330;2023-02-28T00:25:54;0.60;66.00
3550;DHT22;45572;48.804;8.330;2023-02-28T00:28:23;0.60;65.90
3550;DHT22;45572;48.804;8.330;2023-02-28T00:30:52;0.60;65.60
3550;DHT22;45572;48.804;8.330;2023-02-28T00:33:20;0.60;65.80
3550;DHT22;45572;48.804;8.330;2023-02-28T00:35:48;0.60;66.30
3550;DHT22;45572;48.804;8.330;2023-02-28T00:38:16;0.50;66.90
3550;DHT22;45572;48.804;8.330;2023-02-28T00:40:44;0.50;67.20
3550;DHT22;45572;48.804;8.330;2023-02-28T00:43:11;0.50;67.50
3550;DHT22;45572;48.804;8.330;2023-02-28T00:45:39;0.50;67.70
3550;DHT22;45572;48.804;8.330;2023-02-28T00:48:10;0.40;69.10
3550;DHT22;45572;48.804;8.330;2023-02-28T00:50:38;0.40;69.00
3550;DHT22;45572;48.804;8.330;2023-02-28T00:53:06;0.40;69.40
3550;DHT22;45572;48.804;8.330;2023-02-28T00:55:33;0.40;69.50
3550;DHT22;45572;48.804;8.330;2023-02-28T00:58:01;0.40;69.80
3550;DHT22;45572;48.804;8.330;2023-02-28T01:00:29;0.40;70.10
3550;DHT22;45572;48.804;8.330;2023-02-28T01:02:56;0.40;70.20
3550;DHT22;45572;48.804;8.330;2023-02-28T01:05:26;0.40;70.10
3550;DHT22;45572;48.804;8.330;2023-02-28T01:07:54;0.30;70.20
3550;DHT22;45572;48.804;8.330;2023-02-28T01:10:22;0.40;70.60
3550;DHT22;45572;48.804;8.330;2023-02-28T01:12:50;0.40;70.70
3550;DHT22;45572;48.804;8.330;2023-02-28T01:15:18;0.30;71.20
3550;DHT22;45572;48.804;8.330;2023-02-28T01:17:45;0.20;71.70
3550;DHT22;45572;48.804;8.330;2023-02-28T01:20:13;0.30;71.80
3550;DHT22;45572;48.804;8.330;2023-02-28T01:22:42;0.20;72.00
3550;DHT22;45572;48.804;8.330;2023-02-28T01:25:10;0.20;72.50
3550;DHT22;45572;48.804;8.330;2023-02-28T01:27:38;0.20;72.30
3550;DHT22;45572;48.804;8.330;2023-02-28T01:30:07;0.10;73.30
3550;DHT22;45572;48.804;8.330;2023-02-28T01:32:35;0.20;73.50
3550;DHT22;45572;48.804;8.330;2023-02-28T01:35:03;0.10;73.50
3550;DHT22;45572;48.804;8.330;2023-02-28T01:37:31;0.20;73.60
3550;DHT22;45572;48.804;8.330;2023-02-28T01:40:00;0.10;74.10
3550;DHT22;45572;48.804;8.330;2023-02-28T01:42:28;0.10;75.00
3550;DHT22;45572;48.804;8.330;2023-02-28T01:45:00;0.00;74.90
3550;DHT22;45572;48.804;8.330;2023-02-28T01:47:33;0.00;75.30
3550;DHT22;45572;48.804;8.330;2023-02-28T01:50:06;0.00;75.60
3550;DHT22;45572;48.804;8.330;2023-02-28T01:52:34;0.00;76.00
3550;DHT22;45572;48.804;8.330;2023-02-28T01:55:06;-0.10;76.30
3550;DHT22;45572;48.804;8.330;2023-02-28T01:57:38;0.00;76.30
3550;DHT22;45572;48.804;8.330;2023-02-28T02:00:10;-0.10;76.70
3550;DHT22;45572;48.804;8.330;2023-02-28T02:02:48;-0.10;77.10
3550;DHT22;45572;48.804;8.330;2023-02-28T02:05:19;-0.10;77.00
3550;DHT22;45572;48.804;8.330;2023-02-28T02:07:49;-0.10;77.20
3550;DHT22;45572;48.804;8.330;2023-02-28T02:10:21;-0.10;77.30
3550;DHT22;45572;48.804;8.330;2023-02-28T02:13:09;0.00;77.40
3550;DHT22;45572;48.804;8.330;2023-02-28T02:15:42;-0.10;77.60
3550;DHT22;45572;48.804;8.330;2023-02-28T02:18:18;-0.10;78.00
3550;DHT22;45572;48.804;8.330;2023-02-28T02:21:10;-0.10;77.80
3550;DHT22;45572;48.804;8.330;2023-02-28T02:23:57;-0.20;78.10
3550;DHT22;45572;48.804;8.330;2023-02-28T02:26:44;-0.20;78.20
3550;DHT22;45572;48.804;8.330;2023-02-28T02:29:28;-0.20;78.30
3550;DHT22;45572;48.804;8.330;2023-02-28T02:32:16;-0.20;78.40
3550;DHT22;45572;48.804;8.330;2023-02-28T02:34:55;-0.10;78.20
3550;DHT22;45572;48.804;8.330;2023-02-28T02:37:31;-0.10;78.60
3550;DHT22;45572;48.804;8.330;2023-02-28T02:40:07;-0.20;78.80
3550;DHT22;45572;48.804;8.330;2023-02-28T02:42:41;-0.20;79.00
3550;DHT22;45572;48.804;8.330;2023-02-28T02:45:14;-0.20;78.90
3550;DHT22;45572;48.804;8.330;2023-02-28T02:47:45;-0.20;79.00
3550;DHT22;45572;48.804;8.330;2023-02-28T02:50:19;-0.20;79.10
3550;DHT22;45572;48.804;8.330;2023-02-28T02:52:53;-0.20;79.00
3550;DHT22;45572;48.804;8.330;2023-02-28T02:55:22;-0.20;79.00
3550;DHT22;45572;48.804;8.330;2023-02-28T02:57:53;-0.20;79.40
3550;DHT22;45572;48.804;8.330;2023-02-28T03:00:24;-0.10;79.30
3550;DHT22;45572;48.804;8.330;2023-02-28T03:02:54;-0.20;79.40
3550;DHT22;45572;48.804;8.330;2023-02-28T03:05:26;-0.20;79.40
3550;DHT22;45572;48.804;8.330;2023-02-28T03:07:54;-0.30;79.60
3550;DHT22;45572;48.804;8.330;2023-02-28T03:10:28;-0.30;79.90
3550;DHT22;45572;48.804;8.330;2023-02-28T03:13:08;-0.30;79.90
3550;DHT22;45572;48.804;8.330;2023-02-28T03:15:50;-0.30;79.70
3550;DHT22;45572;48.804;8.330;2023-02-28T03:18:25;-0.30;79.90
3550;DHT22;45572;48.804;8.330;2023-02-28T03:21:03;-0.30;79.90
3550;DHT22;45572;48.804;8.330;2023-02-28T03:23:42;-0.30;80.40
3550;DHT22;45572;48.804;8.330;2023-02-28T03:26:17;-0.30;80.30
3550;DHT22;45572;48.804;8.330;2023-02-28T03:28:52;-0.30;80.20
3550;DHT22;45572;48.804;8.330;2023-02-28T03:31:26;-0.40;80.60
3550;DHT22;45572;48.804;8.330;2023-02-28T03:33:59;-0.40;80.60
3550;DHT22;45572;48.804;8.330;2023-02-28T03:36:33;-0.40;80.70
3550;DHT22;45572;48.804;8.330;2023-02-28T03:39:14;-0.50;80.90
3550;DHT22;45572;48.804;8.330;2023-02-28T03:41:48;-0.40;80.80
3550;DHT22;45572;48.804;8.330;2023-02-28T03:44:19;-0.40;80.70
3550;DHT22;45572;48.804;8.330;2023-02-28T03:46:54;-0.40;80.70
3550;DHT22;45572;48.804;8.330;2023-02-28T03:49:27;-0.50;80.90
3550;DHT22;45572;48.804;8.330;2023-02-28T03:51:58;-0.50;81.00
3550;DHT22;45572;48.804;8.330;2023-02-28T03:54:31;-0.50;81.20
3550;DHT22;45572;48.804;8.330;2023-02-28T03:57:04;-0.50;81.20
3550;DHT22;45572;48.804;8.330;2023-02-28T03:59:37;-0.40;81.40
3550;DHT22;45572;48.804;8.330;2023-02-28T04:02:07;-0.40;81.40
3550;DHT22;45572;48.804;8.330;2023-02-28T04:04:35;-0.40;81.50
3550;DHT22;45572;48.804;8.330;2023-02-28T04:07:06;-0.40;81.70
3550;DHT22;45572;48.804;8.330;2023-02-28T04:09:34;-0.40;81.60
3550;DHT22;45572;48.804;8.330;2023-02-28T04:12:03;-0.50;81.50
3550;DHT22;45572;48.804;8.330;2023-02-28T04:14:33;-0.40;81.80
3550;DHT22;45572;48.804;8.330;2023-02-28T04:17:01;-0.40;81.80
3550;DHT22;45572;48.804;8.330;2023-02-28T04:19:28;-0.50;82.20
3550;DHT22;45572;48.804;8.330;2023-02-28T04:21:56;-0.50;82.10
3550;DHT22;45572;48.804;8.330;2023-02-28T04:24:27;-0.50;82.20
3550;DHT22;45572;48.804;8.330;2023-02-28T04:26:56;-0.50;82.60
3550;DHT22;45572;48.804;8.330;2023-02-28T04:29:27;-0.40;82.40
3550;DHT22;45572;48.804;8.330;2023-02-28T04:31:55;-0.40;82.70
3550;DHT22;45572;48.804;8.330;2023-02-28T04:34:25;-0.50;82.60
3550;DHT22;45572;48.804;8.330;2023-02-28T04:36:53;-0.50;83.00
3550;DHT22;45572;48.804;8.330;2023-02-28T04:39:40;-0.50;83.20
3550;DHT22;45572;48.804;8.330;2023-02-28T04:42:09;-0.50;83.00
3550;DHT22;45572;48.804;8.330;2023-02-28T04:44:37;-0.40;83.10
3550;DHT22;45572;48.804;8.330;2023-02-28T04:47:04;-0.40;83.20
3550;DHT22;45572;48.804;8.330;2023-02-28T04:49:32;-0.40;83.40
3550;DHT22;45572;48.804;8.330;2023-02-28T04:52:00;-0.40;83.30
3550;DHT22;45572;48.804;8.330;2023-02-28T04:54:28;-0.30;83.30
3550;DHT22;45572;48.804;8.330;2023-02-28T04:56:57;-0.30;83.60
3550;DHT22;45572;48.804;8.330;2023-02-28T04:59:25;-0.30;83.80
3550;DHT22;45572;48.804;8.330;2023-02-28T05:01:53;-0.30;83.80
3550;DHT22;45572;48.804;8.330;2023-02-28T05:04:21;-0.30;83.90
3550;DHT22;45572;48.804;8.330;2023-02-28T05:06:48;-0.30;84.10
3550;DHT22;45572;48.804;8.330;2023-02-28T05:09:16;-0.30;84.20
3550;DHT22;45572;48.804;8.330;2023-02-28T05:11:44;-0.30;84.10
3550;DHT22;45572;48.804;8.330;2023-02-28T05:14:14;-0.40;84.20
3550;DHT22;45572;48.804;8.330;2023-02-28T05:16:41;-0.40;84.40
3550;DHT22;45572;48.804;8.330;2023-02-28T05:19:09;-0.40;84.60
3550;DHT22;45572;48.804;8.330;2023-02-28T05:21:39;-0.40;84.60
3550;DHT22;45572;48.804;8.330;2023-02-28T05:24:09;-0.30;83.80
3550;DHT22;45572;48.804;8.330;2023-02-28T05:26:40;-0.30;84.10
3550;DHT22;45572;48.804;8.330;2023-02-28T05:29:08;-0.30;83.90
3550;DHT22;45572;48.804;8.330;2023-02-28T05:31:38;-0.30;84.10
3550;DHT22;45572;48.804;8.330;2023-02-28T05:34:06;-0.30;84.40
3550;DHT22;45572;48.804;8.330;2023-02-28T05:36:33;-0.30;84.40
3550;DHT22;45572;48.804;8.330;2023-02-28T05:39:05;-0.20;84.40
3550;DHT22;45572;48.804;8.330;2023-02-28T05:41:33;-0.20;84.50
3550;DHT22;45572;48.804;8.330;2023-02-28T05:44:01;-0.20;84.40
3550;DHT22;45572;48.804;8.330;2023-02-28T05:46:29;-0.10;84.30
3550;DHT22;45572;48.804;8.330;2023-02-28T05:48:58;0.00;84.00
3550;DHT22;45572;48.804;8.330;2023-02-28T05:51:27;0.00;84.10
3550;DHT22;45572;48.804;8.330;2023-02-28T05:53:59;0.10;84.10
3550;DHT22;45572;48.804;8.330;2023-02-28T05:56:27;0.10;84.20
3550;DHT22;45572;48.804;8.330;2023-02-28T05:58:57;0.10;83.80
3550;DHT22;45572;48.804;8.330;2023-02-28T06:01:32;0.10;84.30
3550;DHT22;45572;48.804;8.330;2023-02-28T06:04:09;0.20;84.40
3550;DHT22;45572;48.804;8.330;2023-02-28T06:06:54;0.10;84.20
3550;DHT22;45572;48.804;8.330;2023-02-28T06:09:25;0.20;84.20
3550;DHT22;45572;48.804;8.330;2023-02-28T06:11:52;0.20;84.40
3550;DHT22;45572;48.804;8.330;2023-02-28T06:14:23;0.30;84.20
3550;DHT22;45572;48.804;8.330;2023-02-28T06:16:50;0.30;84.00
3550;DHT22;45572;48.804;8.330;2023-02-28T06:19:20;0.30;84.00
3550;DHT22;45572;48.804;8.330;2023-02-28T06:21:50;0.30;84.00
3550;DHT22;45572;48.804;8.330;2023-02-28T06:24:19;0.30;84.10
3550;DHT22;45572;48.804;8.330;2023-02-28T06:26:49;0.30;83.80
3550;DHT22;45572;48.804;8.330;2023-02-28T06:29:17;0.20;84.40
3550;DHT22;45572;48.804;8.330;2023-02-28T06:31:47;0.30;84.20
3550;DHT22;45572;48.804;8.330;2023-02-28T06:34:19;0.30;84.50
3550;DHT22;45572;48.804;8.330;2023-02-28T06:36:50;0.30;84.10
3550;DHT22;45572;48.804;8.330;2023-02-28T06:39:18;0.40;84.20
3550;DHT22;45572;48.804;8.330;2023-02-28T06:41:46;0.40;84.20
3550;DHT22;45572;48.804;8.330;2023-02-28T06:44:22;0.50;84.60
3550;DHT22;45572;48.804;8.330;2023-02-28T06:46:50;0.50;84.40
3550;DHT22;45572;48.804;8.330;2023-02-28T06:49:19;0.60;84.20
3550;DHT22;45572;48.804;8.330;2023-02-28T06:51:47;0.60;84.40
3550;DHT22;45572;48.804;8.330;2023-02-28T06:54:15;0.60;84.20
3550;DHT22;45572;48.804;8.330;2023-02-28T06:56:44;0.60;84.40
3550;DHT22;45572;48.804;8.330;2023-02-28T06:59:13;0.70;84.50
3550;DHT22;45572;48.804;8.330;2023-02-28T07:01:41;0.70;84.40
3550;DHT22;45572;48.804;8.330;2023-02-28T07:04:09;0.80;84.10
3550;DHT22;45572;48.804;8.330;2023-02-28T07:06:39;1.00;84.00
3550;DHT22;45572;48.804;8.330;2023-02-28T07:09:08;1.00;83.40
3550;DHT22;45572;48.804;8.330;2023-02-28T07:11:35;1.00;82.80
3550;DHT22;45572;48.804;8.330;2023-02-28T07:14:03;1.00;83.00
3550;DHT22;45572;48.804;8.330;2023-02-28T07:16:31;1.00;82.90
3550;DHT22;45572;48.804;8.330;2023-02-28T07:18:59;1.00;83.00
3550;DHT22;45572;48.804;8.330;2023-02-28T07:21:27;1.00;83.20
3550;DHT22;45572;48.804;8.330;2023-02-28T07:23:57;1.00;83.30
3550;DHT22;45572;48.804;8.330;2023-02-28T07:26:26;1.10;83.30
3550;DHT22;45572;48.804;8.330;2023-02-28T07:28:53;1.20;83.00
3550;DHT22;45572;48.804;8.330;2023-02-28T07:31:21;1.10;82.60
3550;DHT22;45572;48.804;8.330;2023-02-28T07:33:51;1.20;82.70
3550;DHT22;45572;48.804;8.330;2023-02-28T07:36:20;1.20;82.90
3550;DHT22;45572;48.804;8.330;2023-02-28T07:38:48;1.30;82.40
3550;DHT22;45572;48.804;8.330;2023-02-28T07:41:21;1.40;82.30
3550;DHT22;45572;48.804;8.330;2023-02-28T07:43:53;1.30;81.20
3550;DHT22;45572;48.804;8.330;2023-02-28T07:46:21;1.30;81.10
3550;DHT22;45572;48.804;8.330;2023-02-28T07:48:49;1.30;81.60
3550;DHT22;45572;48.804;8.330;2023-02-28T07:51:17;1.30;81.30
3550;DHT22;45572;48.804;8.330;2023-02-28T07:53:45;1.30;80.30
3550;DHT22;45572;48.804;8.330;2023-02-28T07:56:12;1.30;80.90
3550;DHT22;45572;48.804;8.330;2023-02-28T07:58:41;1.30;81.20
3550;DHT22;45572;48.804;8.330;2023-02-28T08:01:10;1.20;81.00
3550;DHT22;45572;48.804;8.330;2023-02-28T08:03:39;1.20;80.60
3550;DHT22;45572;48.804;8.330;2023-02-28T08:06:08;1.30;81.10
3550;DHT22;45572;48.804;8.330;2023-02-28T08:08:42;1.30;81.30
3550;DHT22;45572;48.804;8.330;2023-02-28T08:11:10;1.40;80.90
3550;DHT22;45572;48.804;8.330;2023-02-28T08:13:38;1.40;80.40
3550;DHT22;45572;48.804;8.330;2023-02-28T08:16:07;1.50;80.00
3550;DHT22;45572;48.804;8.330;2023-02-28T08:18:36;1.50;80.20
3550;DHT22;45572;48.804;8.330;2023-02-28T08:21:07;1.40;79.30
3550;DHT22;45572;48.804;8.330;2023-02-28T08:23:35;1.50;79.50
3550;DHT22;45572;48.804;8.330;2023-02-28T08:26:04;1.50;79.40
3550;DHT22;45572;48.804;8.330;2023-02-28T08:28:32;1.60;79.70
3550;DHT22;45572;48.804;8.330;2023-02-28T08:31:00;1.60;79.70
3550;DHT22;45572;48.804;8.330;2023-02-28T08:33:29;1.60;79.80
3550;DHT22;45572;48.804;8.330;2023-02-28T08:35:57;1.70;79.00
3550;DHT22;45572;48.804;8.330;2023-02-28T08:38:25;1.70;79.00
3550;DHT22;45572;48.804;8.330;2023-02-28T08:40:57;1.70;78.70
3550;DHT22;45572;48.804;8.330;2023-02-28T08:43:26;1.80;79.10
3550;DHT22;45572;48.804;8.330;2023-02-28T08:45:55;1.80;78.60
3550;DHT22;45572;48.804;8.330;2023-02-28T08:48:24;1.90;78.70
3550;DHT22;45572;48.804;8.330;2023-02-28T08:50:57;1.90;78.60
3550;DHT22;45572;48.804;8.330;2023-02-28T08:53:34;2.10;78.70
3550;DHT22;45572;48.804;8.330;2023-02-28T08:56:04;2.20;77.90
3550;DHT22;45572;48.804;8.330;2023-02-28T08:58:32;2.10;77.20
3550;DHT22;45572;48.804;8.330;2023-02-28T09:01:06;2.10;77.30
3550;DHT22;45572;48.804;8.330;2023-02-28T09:03:34;2.20;77.30
3550;DHT22;45572;48.804;8.330;2023-02-28T09:06:04;2.30;76.90
3550;DHT22;45572;48.804;8.330;2023-02-28T09:08:32;2.40;76.00
3550;DHT22;45572;48.804;8.330;2023-02-28T09:11:01;2.30;75.80
3550;DHT22;45572;48.804;8.330;2023-02-28T09:13:31;2.40;75.50
3550;DHT22;45572;48.804;8.330;2023-02-28T09:16:01;2.40;76.10
3550;DHT22;45572;48.804;8.330;2023-02-28T09:18:31;2.50;76.20
3550;DHT22;45572;48.804;8.330;2023-02-28T09:21:12;2.50;75.50
3550;DHT22;45572;48.804;8.330;2023-02-28T09:23:41;2.60;76.30
3550;DHT22;45572;48.804;8.330;2023-02-28T09:26:14;2.70;75.80
3550;DHT22;45572;48.804;8.330;2023-02-28T09:28:44;2.60;74.60
3550;DHT22;45572;48.804;8.330;2023-02-28T09:31:12;2.50;74.40
3550;DHT22;45572;48.804;8.330;2023-02-28T09:33:41;2.60;75.00
3550;DHT22;45572;48.804;8.330;2023-02-28T09:36:10;2.60;75.00
3550;DHT22;45572;48.804;8.330;2023-02-28T09:38:42;2.60;74.50
3550;DHT22;45572;48.804;8.330;2023-02-28T09:41:13;2.60;74.10
3550;DHT22;45572;48.804;8.330;2023-02-28T09:43:45;2.70;74.70
3550;DHT22;45572;48.804;8.330;2023-02-28T09:46:25;2.80;74.00
3550;DHT22;45572;48.804;8.330;2023-02-28T09:48:57;2.80;73.70
3550;DHT22;45572;48.804;8.330;2023-02-28T09:51:36;2.90;73.60
3550;DHT22;45572;48.804;8.330;2023-02-28T09:54:14;3.00;73.50
3550;DHT22;45572;48.804;8.330;2023-02-28T09:56:49;3.10;73.00
3550;DHT22;45572;48.804;8.330;2023-02-28T09:59:29;3.20;73.30
3550;DHT22;45572;48.804;8.330;2023-02-28T10:02:08;3.50;71.90
3550;DHT22;45572;48.804;8.330;2023-02-28T10:04:44;3.50;71.80
3550;DHT22;45572;48.804;8.330;2023-02-28T10:07:24;3.50;70.90
3550;DHT22;45572;48.804;8.330;2023-02-28T10:09:57;3.50;71.20
3550;DHT22;45572;48.804;8.330;2023-02-28T10:12:26;3.50;70.30
3550;DHT22;45572;48.804;8.330;2023-02-28T10:14:58;3.50;70.70
3550;DHT22;45572;48.804;8.330;2023-02-28T10:17:35;3.40;70.50
3550;DHT22;45572;48.804;8.330;2023-02-28T10:20:26;3.50;70.20
3550;DHT22;45572;48.804;8.330;2023-02-28T10:23:02;3.30;70.70
3550;DHT22;45572;48.804;8.330;2023-02-28T10:25:35;3.20;70.40
3550;DHT22;45572;48.804;8.330;2023-02-28T10:28:09;3.30;70.70
3550;DHT22;45572;48.804;8.330;2023-02-28T10:30:40;3.30;70.50
3550;DHT22;45572;48.804;8.330;2023-02-28T10:33:18;3.30;71.10
3550;DHT22;45572;48.804;8.330;2023-02-28T10:35:47;3.30;71.00
3550;DHT22;45572;48.804;8.330;2023-02-28T10:38:19;3.40;71.40
3550;DHT22;45572;48.804;8.330;2023-02-28T10:40:47;3.40;70.40
3550;DHT22;45572;48.804;8.330;2023-02-28T10:43:20;3.40;70.00
3550;DHT22;45572;48.804;8.330;2023-02-28T10:45:55;3.40;70.80
3550;DHT22;45572;48.804;8.330;2023-02-28T10:48:30;3.50;69.40
3550;DHT22;45572;48.804;8.330;2023-02-28T10:50:58;3.50;69.00
3550;DHT22;45572;48.804;8.330;2023-02-28T10:53:34;3.60;68.70
3550;DHT22;45572;48.804;8.330;2023-02-28T10:56:24;3.70;68.80
3550;DHT22;45572;48.804;8.330;2023-02-28T10:58:55;3.70;69.00
3550;DHT22;45572;48.804;8.330;2023-02-28T11:01:26;3.70;68.10
3550;DHT22;45572;48.804;8.330;2023-02-28T11:04:02;3.70;68.20
3550;DHT22;45572;48.804;8.330;2023-02-28T11:06:31;3.80;68.70
3550;DHT22;45572;48.804;8.330;2023-02-28T11:09:04;4.00;67.60
3550;DHT22;45572;48.804;8.330;2023-02-28T11:11:43;4.00;66.60
3550;DHT22;45572;48.804;8.330;2023-02-28T11:14:19;4.00;66.70
3550;DHT22;45572;48.804;8.330;2023-02-28T11:16:48;4.00;67.30
3550;DHT22;45572;48.804;8.330;2023-02-28T11:19:20;3.90;66.70
3550;DHT22;45572;48.804;8.330;2023-02-28T11:21:53;3.90;66.50
3550;DHT22;45572;48.804;8.330;2023-02-28T11:24:26;4.00;67.00
3550;DHT22;45572;48.804;8.330;2023-02-28T11:26:55;3.90;66.60
3550;DHT22;45572;48.804;8.330;2023-02-28T11:29:25;4.00;67.20
3550;DHT22;45572;48.804;8.330;2023-02-28T11:32:12;4.20;66.60
3550;DHT22;45572;48.804;8.330;2023-02-28T11:34:59;4.20;65.60
3550;DHT22;45572;48.804;8.330;2023-02-28T11:37:28;4.30;65.60
3550;DHT22;45572;48.804;8.330;2023-02-28T11:39:58;4.40;66.20
3550;DHT22;45572;48.804;8.330;2023-02-28T11:42:46;4.50;65.00
3550;DHT22;45572;48.804;8.330;2023-02-28T11:45:29;4.70;64.30
3550;DHT22;45572;48.804;8.330;2023-02-28T11:48:10;4.90;63.80
3550;DHT22;45572;48.804;8.330;2023-02-28T11:50:52;5.00;64.00
3550;DHT22;45572;48.804;8.330;2023-02-28T11:53:39;5.20;64.50
3550;DHT22;45572;48.804;8.330;2023-02-28T11:56:18;5.40;63.20
3550;DHT22;45572;48.804;8.330;2023-02-28T11:59:02;5.60;62.80
3550;DHT22;45572;48.804;8.330;2023-02-28T12:01:49;6.00;63.60
3550;DHT22;45572;48.804;8.330;2023-02-28T12:04:28;6.60;61.60
3550;DHT22;45572;48.804;8.330;2023-02-28T12:07:07;6.60;59.70
3550;DHT22;45572;48.804;8.330;2023-02-28T12:09:44;6.60;59.20
3550;DHT22;45572;48.804;8.330;2023-02-28T12:12:23;6.50;59.70
3550;DHT22;45572;48.804;8.330;2023-02-28T12:15:06;6.30;59.80
3550;DHT22;45572;48.804;8.330;2023-02-28T12:17:50;6.40;60.00
3550;DHT22;45572;48.804;8.330;2023-02-28T12:20:26;6.50;59.70
3550;DHT22;45572;48.804;8.330;2023-02-28T12:23:10;6.50;58.80
3550;DHT22;45572;48.804;8.330;2023-02-28T12:25:50;6.50;59.80
3550;DHT22;45572;48.804;8.330;2023-02-28T12:28:30;6.50;60.10
3550;DHT22;45572;48.804;8.330;2023-02-28T12:31:01;6.50;58.90
3550;DHT22;45572;48.804;8.330;2023-02-28T12:33:34;6.50;59.30
3550;DHT22;45572;48.804;8.330;2023-02-28T12:36:07;6.60;60.50
3550;DHT22;45572;48.804;8.330;2023-02-28T12:38:40;6.70;59.10
3550;DHT22;45572;48.804;8.330;2023-02-28T12:41:13;6.60;59.00
3550;DHT22;45572;48.804;8.330;2023-02-28T12:43:57;6.50;59.60
3550;DHT22;45572;48.804;8.330;2023-02-28T12:46:43;6.60;60.30
3550;DHT22;45572;48.804;8.330;2023-02-28T12:49:16;6.50;60.90
3550;DHT22;45572;48.804;8.330;2023-02-28T12:51:53;6.50;60.00
3550;DHT22;45572;48.804;8.330;2023-02-28T12:54:24;6.40;60.70
3550;DHT22;45572;48.804;8.330;2023-02-28T12:57:02;6.30;60.40
3550;DHT22;45572;48.804;8.330;2023-02-28T12:59:38;6.30;61.20
3550;DHT22;45572;48.804;8.330;2023-02-28T13:02:32;6.20;61.00
3550;DHT22;45572;48.804;8.330;2023-02-28T13:05:12;6.40;61.30
3550;DHT22;45572;48.804;8.330;2023-02-28T13:08:02;6.30;60.20
3550;DHT22;45572;48.804;8.330;2023-02-28T13:10:42;6.30;61.90
3550;DHT22;45572;48.804;8.330;2023-02-28T13:13:16;6.30;61.70
3550;DHT22;45572;48.804;8.330;2023-02-28T13:16:04;6.30;62.10
3550;DHT22;45572;48.804;8.330;2023-02-28T13:18:35;6.40;61.20
3550;DHT22;45572;48.804;8.330;2023-02-28T13:21:08;6.40;60.90
3550;DHT22;45572;48.804;8.330;2023-02-28T13:29:32;6.50;60.30
3550;DHT22;45572;48.804;8.330;2023-02-28T13:32:19;6.50;60.30
3550;DHT22;45572;48.804;8.330;2023-02-28T13:37:47;6.70;59.50
3550;DHT22;45572;48.804;8.330;2023-02-28T13:40:33;6.70;59.70
3550;DHT22;45572;48.804;8.330;2023-02-28T13:43:08;6.70;60.30
3550;DHT22;45572;48.804;8.330;2023-02-28T13:45:37;6.70;59.40
3550;DHT22;45572;48.804;8.330;2023-02-28T13:48:18;6.60;60.20
3550;DHT22;45572;48.804;8.330;2023-02-28T13:50:46;6.60;59.30
3550;DHT22;45572;48.804;8.330;2023-02-28T13:53:34;6.50;60.00
3550;DHT22;45572;48.804;8.330;2023-02-28T13:56:16;6.50;59.90
3550;DHT22;45572;48.804;8.330;2023-02-28T13:58:54;6.40;59.80
3550;DHT22;45572;48.804;8.330;2023-02-28T14:01:35;6.30;59.90
3550;DHT22;45572;48.804;8.330;2023-02-28T14:04:40;6.20;60.00
3550;DHT22;45572;48.804;8.330;2023-02-28T14:07:18;6.20;60.90
3550;DHT22;45572;48.804;8.330;2023-02-28T14:09:55;6.20;61.30
3550;DHT22;45572;48.804;8.330;2023-02-28T14:15:41;6.20;62.10
3550;DHT22;45572;48.804;8.330;2023-02-28T14:21:09;6.10;60.50
3550;DHT22;45572;48.804;8.330;2023-02-28T14:24:00;6.10;60.30
3550;DHT22;45572;48.804;8.330;2023-02-28T14:26:46;6.20;61.50
3550;DHT22;45572;48.804;8.330;2023-02-28T14:29:35;6.30;61.40
3550;DHT22;45572;48.804;8.330;2023-02-28T14:32:12;6.40;60.20
3550;DHT22;45572;48.804;8.330;2023-02-28T14:34:50;6.40;60.40
3550;DHT22;45572;48.804;8.330;2023-02-28T14:37:26;6.50;61.10
3550;DHT22;45572;48.804;8.330;2023-02-28T14:39:57;6.50;61.00
3550;DHT22;45572;48.804;8.330;2023-02-28T14:42:29;6.60;60.70
3550;DHT22;45572;48.804;8.330;2023-02-28T14:44:57;6.60;60.70
3550;DHT22;45572;48.804;8.330;2023-02-28T14:47:30;6.60;60.20
3550;DHT22;45572;48.804;8.330;2023-02-28T14:50:02;6.60;59.80
3550;DHT22;45572;48.804;8.330;2023-02-28T14:52:33;6.60;60.60
3550;DHT22;45572;48.804;8.330;2023-02-28T14:55:04;6.60;61.20
3550;DHT22;45572;48.804;8.330;2023-02-28T14:57:39;6.60;61.20
3550;DHT22;45572;48.804;8.330;2023-02-28T15:00:13;6.60;61.40
3550;DHT22;45572;48.804;8.330;2023-02-28T15:02:44;6.70;60.90
3550;DHT22;45572;48.804;8.330;2023-02-28T15:05:22;6.70;60.30
3550;DHT22;45572;48.804;8.330;2023-02-28T15:08:12;6.60;59.90
3550;DHT22;45572;48.804;8.330;2023-02-28T15:10:42;6.70;61.20
3550;DHT22;45572;48.804;8.330;2023-02-28T15:13:13;6.70;61.00
3550;DHT22;45572;48.804;8.330;2023-02-28T15:15:45;6.70;60.60
3550;DHT22;45572;48.804;8.330;2023-02-28T15:18:36;6.80;60.70
3550;DHT22;45572;48.804;8.330;2023-02-28T15:21:09;6.80;60.50
3550;DHT22;45572;48.804;8.330;2023-02-28T15:23:52;6.80;60.10
3550;DHT22;45572;48.804;8.330;2023-02-28T15:26:23;6.80;59.60
3550;DHT22;45572;48.804;8.330;2023-02-28T15:28:58;6.70;59.70
3550;DHT22;45572;48.804;8.330;2023-02-28T15:31:28;6.70;59.80
3550;DHT22;45572;48.804;8.330;2023-02-28T15:34:24;6.70;60.70
3550;DHT22;45572;48.804;8.330;2023-02-28T15:39:52;6.70;60.90
3550;DHT22;45572;48.804;8.330;2023-02-28T15:42:22;6.70;60.80
3550;DHT22;45572;48.804;8.330;2023-02-28T15:44:50;6.70;61.20
3550;DHT22;45572;48.804;8.330;2023-02-28T15:47:19;6.70;60.90
3550;DHT22;45572;48.804;8.330;2023-02-28T15:49:51;6.60;61.70
3550;DHT22;45572;48.804;8.330;2023-02-28T15:52:22;6.60;60.50
3550;DHT22;45572;48.804;8.330;2023-02-28T15:54:52;6.50;61.20
3550;DHT22;45572;48.804;8.330;2023-02-28T15:57:21;6.50;61.70
3550;DHT22;45572;48.804;8.330;2023-02-28T15:59:53;6.50;60.90
3550;DHT22;45572;48.804;8.330;2023-02-28T16:02:30;6.40;62.50
3550;DHT22;45572;48.804;8.330;2023-02-28T16:05:12;6.40;62.70
3550;DHT22;45572;48.804;8.330;2023-02-28T16:07:45;6.30;62.60
3550;DHT22;45572;48.804;8.330;2023-02-28T16:10:17;6.40;61.70
3550;DHT22;45572;48.804;8.330;2023-02-28T16:12:47;6.30;61.50
3550;DHT22;45572;48.804;8.330;2023-02-28T16:15:19;6.20;63.20
3550;DHT22;45572;48.804;8.330;2023-02-28T16:17:49;6.10;62.70
3550;DHT22;45572;48.804;8.330;2023-02-28T16:20:27;6.10;63.00
3550;DHT22;45572;48.804;8.330;2023-02-28T16:23:05;6.10;63.50
3550;DHT22;45572;48.804;8.330;2023-02-28T16:25:42;6.10;62.40
3550;DHT22;45572;48.804;8.330;2023-02-28T16:28:18;6.00;62.60
3550;DHT22;45572;48.804;8.330;2023-02-28T16:30:48;6.00;63.00
3550;DHT22;45572;48.804;8.330;2023-02-28T16:33:19;6.00;63.20
3550;DHT22;45572;48.804;8.330;2023-02-28T16:35:48;5.90;63.50
3550;DHT22;45572;48.804;8.330;2023-02-28T16:38:16;5.90;63.70
3550;DHT22;45572;48.804;8.330;2023-02-28T16:40:45;5.80;63.50
3550;DHT22;45572;48.804;8.330;2023-02-28T16:43:17;5.80;63.50
3550;DHT22;45572;48.804;8.330;2023-02-28T16:45:45;5.70;64.30
3550;DHT22;45572;48.804;8.330;2023-02-28T16:48:15;5.60;64.10
3550;DHT22;45572;48.804;8.330;2023-02-28T16:50:43;5.60;65.10